Columbus, IN

6:59 PM EDT on May 28, 2015 (GMT -0400)
Indianapolis International | | Change Station
CLOSE
Current Station
Airport
Location: Indianapolis,
Elevation: 807 ft
Nearby Weather Stations

Elev 807 ft 39.71 °N, 86.30 °W | Updated 5 minutes ago

Partly Cloudy
Partly Cloudy
81 °F
Feels Like 81 °F
N
12
Wind Variable Wind from South

Today
High -- | Low -- °F
--% Chance of Precip.
Yesterday
High -- | Low -- °F
Precip. -- in
6:21 AM 9:01 PM
Waxing Gibbous, 79% visible
Pressure 30.09 in
Visibility 10.0 miles
Clouds Few 5500 ft
Scattered Clouds 25000 ft
Heat Index 81 °F
Dew Point 59 °F
Humidity 47%
Rainfall 0.00 in
Snow Depth Not available.
UV 1 out of 12
Pollen 8.40 out of 12
Air Quality Not available.
Flu Activity Sporadic
METAR KIND 282254Z 19010KT 10SM FEW055 SCT250 27/15 A3010 RMK AO2 SLP187 T02720150

More Conditions Fewer Conditions

Pressure 30.09 in
Visibility 10.0 miles
Clouds Few 5500 ft
Scattered Clouds 25000 ft
Heat Index 81 °F
Dew Point 59 °F
Humidity 47%
Rainfall 0.00 in
Snow Depth Not available.
UV 1 out of 12
Pollen 8.40 out of 12
Air Quality Not available.
Flu Activity Sporadic
METAR KIND 282254Z 19010KT 10SM FEW055 SCT250 27/15 A3010 RMK AO2 SLP187 T02720150

More Conditions Fewer Conditions

10-Day Weather Forecast

Almanac

Astronomy

May. 28, 2015 Rise Set
Actual Time
Civil Twilight
Nautical Twilight
Astronomical Twilight
Moon
Length of Visible Light
Length of Day
Tomorrow will be .
, % of the Moon is Illuminated

Today's Extremes

State Highs State Lows

Community

WunderPhotos

Upload Photos

1,825,083 photos uploaded!

WunderBlogs® & News

Nearby

Air Quality

  Air Quality AQ Index Pollutant
Not available.

Snow Depth

Station Depth Elevation

Earthquake Activity

City Distance Mag. Time & Date
Minimum magnitude displayed is 2.5.

Coastal Water Temperatures

Place Temperature

Stations

Nearby Weather Stations

Station Location Temp. Windchill Dew Point Humidity Wind Precip. Elev Updated Type